createdAt,value
2016-09-27T00:00:14.668Z,0
2016-09-27T00:01:14.698Z,0
2016-09-27T00:02:14.701Z,0
2016-09-27T00:03:14.723Z,0
2016-09-27T00:04:14.757Z,0
2016-09-27T00:05:14.772Z,0
2016-09-27T00:06:15.097Z,0
2016-09-27T00:07:14.810Z,0
2016-09-27T00:08:14.831Z,0
2016-09-27T00:09:14.839Z,0
2016-09-27T00:10:14.866Z,0
2016-09-27T00:11:14.880Z,0
2016-09-27T00:12:14.897Z,0
2016-09-27T00:13:14.908Z,0
2016-09-27T00:14:14.932Z,0
2016-09-27T00:15:14.952Z,0
2016-09-27T00:16:14.959Z,0
2016-09-27T00:17:14.982Z,0
2016-09-27T00:18:15.014Z,0
2016-09-27T00:19:15.018Z,0
2016-09-27T00:20:15.074Z,0
2016-09-27T00:21:15.062Z,0
2016-09-27T00:22:15.077Z,0
2016-09-27T00:23:15.087Z,0
2016-09-27T00:24:15.117Z,0
2016-09-27T00:25:15.134Z,0
2016-09-27T00:26:15.160Z,0
2016-09-27T00:27:15.169Z,0
2016-09-27T00:28:15.199Z,0
2016-09-27T00:29:15.217Z,0
2016-09-27T00:30:15.200Z,0
2016-09-27T00:31:15.261Z,0
2016-09-27T00:32:15.274Z,0
2016-09-27T00:33:15.279Z,0
2016-09-27T00:34:15.316Z,0
2016-09-27T00:35:15.315Z,0
2016-09-27T00:36:15.343Z,0
2016-09-27T00:37:15.341Z,0
2016-09-27T00:38:15.373Z,0
2016-09-27T00:39:15.389Z,0
2016-09-27T00:40:15.419Z,0
2016-09-27T00:41:15.442Z,0
2016-09-27T00:42:15.442Z,0
2016-09-27T00:43:15.459Z,0
2016-09-27T00:44:15.479Z,0
2016-09-27T00:45:15.501Z,0
2016-09-27T00:46:15.530Z,0
2016-09-27T00:47:15.537Z,0
2016-09-27T00:48:15.581Z,0
2016-09-27T00:49:15.584Z,0
2016-09-27T00:50:15.611Z,0
2016-09-27T00:51:15.620Z,0
2016-09-27T00:52:15.629Z,0
2016-09-27T00:53:15.656Z,0
2016-09-27T00:54:15.685Z,0
2016-09-27T00:55:15.694Z,0
2016-09-27T00:56:15.716Z,0
2016-09-27T00:57:15.718Z,0
2016-09-27T00:58:15.747Z,0
2016-09-27T00:59:15.767Z,0
2016-09-27T01:00:15.772Z,0
2016-09-27T01:01:15.778Z,0
2016-09-27T01:02:15.833Z,0
2016-09-27T01:03:15.861Z,0
2016-09-27T01:04:15.859Z,0
2016-09-27T01:05:15.861Z,0
2016-09-27T01:06:15.891Z,0
2016-09-27T01:07:15.906Z,0
2016-09-27T01:08:15.932Z,0
2016-09-27T01:09:15.930Z,0
2016-09-27T01:10:15.956Z,0
2016-09-27T01:11:15.952Z,0
2016-09-27T01:12:15.996Z,0
2016-09-27T01:13:16.015Z,0
2016-09-27T01:14:16.051Z,0
2016-09-27T01:15:16.380Z,0
2016-09-27T01:16:16.378Z,0
2016-09-27T01:17:16.099Z,0
2016-09-27T01:18:16.111Z,0
2016-09-27T01:19:16.134Z,0
2016-09-27T01:20:16.485Z,0
2016-09-27T01:21:16.152Z,0
2016-09-27T01:22:16.180Z,0
2016-09-27T01:23:16.190Z,0
2016-09-27T01:24:16.221Z,0
2016-09-27T01:25:16.213Z,0
2016-09-27T01:26:16.251Z,0
2016-09-27T01:27:16.269Z,0
2016-09-27T01:28:16.287Z,0
2016-09-27T01:29:16.295Z,0
2016-09-27T01:30:16.320Z,0
2016-09-27T01:31:16.346Z,0
2016-09-27T01:32:16.352Z,0
2016-09-27T01:33:16.383Z,0
2016-09-27T01:34:16.410Z,0
2016-09-27T01:35:16.412Z,0
2016-09-27T01:36:16.430Z,0
2016-09-27T01:37:16.431Z,0
2016-09-27T01:38:16.464Z,0
2016-09-27T01:39:16.475Z,0
2016-09-27T01:40:16.497Z,0
2016-09-27T01:41:16.524Z,0
2016-09-27T01:42:16.541Z,0
2016-09-27T01:43:16.551Z,0
2016-09-27T01:44:16.573Z,0
2016-09-27T01:45:16.603Z,0
2016-09-27T01:46:16.622Z,0
2016-09-27T01:47:16.624Z,0
2016-09-27T01:48:16.643Z,0
2016-09-27T01:49:16.654Z,0
2016-09-27T01:50:16.678Z,0
2016-09-27T01:51:16.699Z,0
2016-09-27T01:52:16.706Z,0
2016-09-27T01:53:16.748Z,0
2016-09-27T01:54:16.775Z,0
2016-09-27T01:55:16.796Z,0
2016-09-27T01:56:17.150Z,0
2016-09-27T01:57:16.810Z,0
2016-09-27T01:58:16.835Z,0
2016-09-27T01:59:16.848Z,0
2016-09-27T02:00:16.878Z,0
2016-09-27T02:01:16.894Z,0
2016-09-27T02:02:16.910Z,0
2016-09-27T02:03:16.932Z,0
2016-09-27T02:04:16.965Z,0
2016-09-27T02:05:16.939Z,0
2016-09-27T02:06:17.295Z,0
2016-09-27T02:07:16.978Z,0
2016-09-27T02:08:17.017Z,0
2016-09-27T02:09:17.022Z,0
2016-09-27T02:10:17.051Z,0
2016-09-27T02:11:17.041Z,0
2016-09-27T02:12:17.084Z,0
2016-09-27T02:13:17.112Z,0
2016-09-27T02:14:17.129Z,0
2016-09-27T02:15:17.165Z,0
2016-09-27T02:16:17.158Z,0
2016-09-27T02:17:17.183Z,0
2016-09-27T02:18:17.215Z,0
2016-09-27T02:19:17.213Z,0
2016-09-27T02:20:17.246Z,0
2016-09-27T02:21:17.263Z,0
2016-09-27T02:22:17.271Z,0
2016-09-27T02:23:17.281Z,0
2016-09-27T02:24:17.302Z,0
2016-09-27T02:25:17.346Z,0
2016-09-27T02:26:17.340Z,0
2016-09-27T02:27:17.357Z,0
2016-09-27T02:28:17.408Z,0
2016-09-27T02:29:17.388Z,0
2016-09-27T02:30:17.411Z,0
2016-09-27T02:31:17.430Z,0
2016-09-27T02:32:17.458Z,0
2016-09-27T02:33:17.471Z,0
2016-09-27T02:34:17.489Z,0
2016-09-27T02:35:17.528Z,0
2016-09-27T02:36:17.533Z,0
2016-09-27T02:37:17.525Z,0
2016-09-27T02:38:17.582Z,0
2016-09-27T02:39:17.587Z,0
2016-09-27T02:40:17.944Z,0
2016-09-27T02:41:17.610Z,0
2016-09-27T02:42:17.665Z,0
2016-09-27T02:43:17.653Z,0
2016-09-27T02:44:17.661Z,0
2016-09-27T02:45:17.713Z,0
2016-09-27T02:46:17.730Z,0
2016-09-27T02:47:17.729Z,0
2016-09-27T02:48:17.750Z,0
2016-09-27T02:49:17.756Z,0
2016-09-27T02:50:17.772Z,0
2016-09-27T02:51:17.833Z,0
2016-09-27T02:52:17.818Z,0
2016-09-27T02:53:17.844Z,0
2016-09-27T02:54:17.864Z,0
2016-09-27T02:55:17.869Z,0
2016-09-27T02:56:17.900Z,0
2016-09-27T02:57:17.907Z,0
2016-09-27T02:58:17.939Z,0
2016-09-27T02:59:17.931Z,0
2016-09-27T03:00:17.970Z,0
2016-09-27T03:01:17.989Z,0
2016-09-27T03:02:17.993Z,0
2016-09-27T03:03:18.020Z,0
2016-09-27T03:04:18.046Z,0
2016-09-27T03:05:18.036Z,0
2016-09-27T03:06:18.079Z,0
2016-09-27T03:07:18.101Z,0
2016-09-27T03:08:18.113Z,0
2016-09-27T03:09:18.146Z,0
2016-09-27T03:10:18.155Z,0
2016-09-27T03:11:18.176Z,0
2016-09-27T03:12:18.174Z,0
2016-09-27T03:13:18.206Z,0
2016-09-27T03:14:18.225Z,0
2016-09-27T03:15:18.240Z,0
2016-09-27T03:16:18.261Z,0
2016-09-27T03:17:18.275Z,0
2016-09-27T03:18:18.276Z,0
2016-09-27T03:19:18.308Z,0
2016-09-27T03:20:18.338Z,0
2016-09-27T03:21:18.341Z,0
2016-09-27T03:22:18.374Z,0
2016-09-27T03:23:18.383Z,0
2016-09-27T03:24:18.401Z,0
2016-09-27T03:25:18.421Z,0
2016-09-27T03:26:18.457Z,0
2016-09-27T03:27:18.441Z,0
2016-09-27T03:28:18.499Z,0
2016-09-27T03:29:18.478Z,0
2016-09-27T03:30:18.510Z,0
2016-09-27T03:31:18.528Z,0
2016-09-27T03:32:18.551Z,0
2016-09-27T03:33:18.565Z,0
2016-09-27T03:34:18.599Z,0
2016-09-27T03:35:18.603Z,0
2016-09-27T03:36:18.619Z,0
2016-09-27T03:37:18.636Z,0
2016-09-27T03:38:18.661Z,0
2016-09-27T03:39:18.674Z,0
2016-09-27T03:40:18.678Z,0
2016-09-27T03:41:18.710Z,0
2016-09-27T03:42:18.734Z,0
2016-09-27T03:43:18.748Z,0
2016-09-27T03:44:18.761Z,0
2016-09-27T03:45:18.783Z,0
2016-09-27T03:46:18.806Z,0
2016-09-27T03:47:18.811Z,0
2016-09-27T03:48:18.834Z,0
2016-09-27T03:49:18.857Z,0
2016-09-27T03:50:18.883Z,0
2016-09-27T03:51:18.903Z,0
2016-09-27T03:52:18.908Z,0
2016-09-27T03:53:18.927Z,0
2016-09-27T03:54:18.953Z,0
2016-09-27T03:55:18.961Z,0
2016-09-27T03:56:19.003Z,0
2016-09-27T03:57:19.015Z,0
2016-09-27T03:58:19.016Z,0
2016-09-27T03:59:19.033Z,0
2016-09-27T04:01:48.751Z,0
2016-09-27T04:02:19.085Z,0
2016-09-27T04:03:19.126Z,0
2016-09-27T04:04:19.131Z,0
2016-09-27T04:05:19.154Z,0
2016-09-27T04:06:19.176Z,0
2016-09-27T04:07:19.164Z,0
2016-09-27T04:08:19.213Z,0
2016-09-27T04:09:19.210Z,0
2016-09-27T04:10:19.240Z,0
2016-09-27T04:11:19.267Z,0
2016-09-27T04:12:19.287Z,0
2016-09-27T04:13:19.287Z,0
2016-09-27T04:14:19.328Z,0
2016-09-27T04:15:19.334Z,0
2016-09-27T04:16:19.343Z,0
2016-09-27T04:17:19.375Z,0
2016-09-27T04:18:19.393Z,0
2016-09-27T04:19:19.413Z,0
2016-09-27T04:20:19.418Z,0
2016-09-27T04:21:19.434Z,0
2016-09-27T04:22:19.429Z,0
2016-09-27T04:23:19.488Z,0
2016-09-27T04:24:19.493Z,0
2016-09-27T04:25:19.506Z,0
2016-09-27T04:26:19.529Z,0
2016-09-27T04:27:19.556Z,0
2016-09-27T04:28:19.555Z,0
2016-09-27T04:29:19.583Z,0
2016-09-27T04:30:19.611Z,0
2016-09-27T04:31:19.616Z,0
2016-09-27T04:32:19.615Z,0
2016-09-27T04:33:19.655Z,0
2016-09-27T04:34:19.695Z,0
2016-09-27T04:35:19.684Z,0
2016-09-27T04:36:19.694Z,0
2016-09-27T04:37:19.714Z,0
2016-09-27T04:38:19.752Z,0
2016-09-27T04:39:19.774Z,0
2016-09-27T04:40:19.774Z,0
2016-09-27T04:41:19.805Z,0
2016-09-27T04:42:19.798Z,0
2016-09-27T04:43:19.822Z,0
2016-09-27T04:44:19.855Z,0
2016-09-27T04:45:19.882Z,0
2016-09-27T04:46:19.877Z,0
2016-09-27T04:47:19.904Z,0
2016-09-27T04:48:19.927Z,0
2016-09-27T04:49:19.953Z,0
2016-09-27T04:50:19.967Z,0
2016-09-27T04:51:19.982Z,0
2016-09-27T04:52:19.995Z,0
2016-09-27T04:53:20.012Z,0
2016-09-27T04:54:20.046Z,0
2016-09-27T04:55:20.048Z,0
2016-09-27T04:56:20.056Z,0
2016-09-27T04:57:20.088Z,0
2016-09-27T04:58:20.111Z,0
2016-09-27T04:59:20.118Z,0
2016-09-27T05:00:20.146Z,0
2016-09-27T05:01:20.176Z,0
2016-09-27T05:02:20.234Z,0
2016-09-27T05:03:20.190Z,0
2016-09-27T05:04:20.217Z,0
2016-09-27T05:05:20.235Z,0
2016-09-27T05:06:20.237Z,0
2016-09-27T05:07:20.286Z,0
2016-09-27T05:08:20.305Z,0
2016-09-27T05:09:20.324Z,0
2016-09-27T05:10:20.328Z,0
2016-09-27T05:11:20.334Z,0
2016-09-27T05:12:20.380Z,0
2016-09-27T05:13:20.384Z,0
2016-09-27T05:14:20.388Z,0
2016-09-27T05:15:20.390Z,0
2016-09-27T05:16:20.462Z,0
2016-09-27T05:17:20.449Z,0
2016-09-27T05:18:20.478Z,0
2016-09-27T05:19:20.488Z,0
2016-09-27T05:20:20.512Z,0
2016-09-27T05:21:20.515Z,0
2016-09-27T05:22:20.550Z,0
2016-09-27T05:23:20.556Z,0
2016-09-27T05:24:20.596Z,0
2016-09-27T05:25:20.592Z,0
2016-09-27T05:26:20.621Z,5
2016-09-27T05:27:20.631Z,5
2016-09-27T05:28:20.660Z,5
2016-09-27T05:29:20.654Z,5
2016-09-27T05:30:20.700Z,5
2016-09-27T05:31:20.721Z,5
2016-09-27T05:32:20.724Z,5
2016-09-27T05:33:20.721Z,5
2016-09-27T05:34:20.764Z,5
2016-09-27T05:35:20.791Z,10
2016-09-27T05:36:20.809Z,10
2016-09-27T05:37:20.797Z,10
2016-09-27T05:38:20.857Z,10
2016-09-27T05:39:20.854Z,10
2016-09-27T05:40:20.875Z,10
2016-09-27T05:41:20.886Z,10
2016-09-27T05:42:20.906Z,10
2016-09-27T05:43:20.931Z,15
2016-09-27T05:44:20.948Z,15
2016-09-27T05:45:20.964Z,15
2016-09-27T05:46:20.972Z,15
2016-09-27T05:47:21.014Z,20
2016-09-27T05:48:21.047Z,20
2016-09-27T05:49:21.031Z,20
2016-09-27T05:50:21.050Z,25
2016-09-27T05:51:21.045Z,25
2016-09-27T05:52:21.100Z,25
2016-09-27T05:53:21.112Z,30
2016-09-27T05:54:21.155Z,30
2016-09-27T05:55:21.161Z,30
2016-09-27T05:56:21.180Z,35
2016-09-27T05:57:21.180Z,35
2016-09-27T05:58:21.206Z,35
2016-09-27T05:59:21.214Z,35
2016-09-27T06:00:21.247Z,40
2016-09-27T06:01:21.257Z,40
2016-09-27T06:02:21.283Z,40
2016-09-27T06:03:21.292Z,40
2016-09-27T06:04:21.317Z,45
2016-09-27T06:05:21.338Z,45
2016-09-27T06:06:21.334Z,45
2016-09-27T06:07:21.369Z,45
2016-09-27T06:08:21.394Z,45
2016-09-27T06:09:21.413Z,45
2016-09-27T06:10:21.440Z,50
2016-09-27T06:11:21.455Z,50
2016-09-27T06:12:21.484Z,50
2016-09-27T06:13:21.490Z,50
2016-09-27T06:14:21.502Z,50
2016-09-27T06:15:21.531Z,50
2016-09-27T06:16:21.531Z,50
2016-09-27T06:17:21.603Z,50
2016-09-27T06:18:21.590Z,55
2016-09-27T06:19:21.580Z,55
2016-09-27T06:20:21.620Z,60
2016-09-27T06:21:21.618Z,60
2016-09-27T06:22:21.640Z,60
2016-09-27T06:23:21.667Z,60
2016-09-27T06:24:21.682Z,65
2016-09-27T06:25:21.695Z,70
2016-09-27T06:26:21.724Z,75
2016-09-27T06:27:21.745Z,75
2016-09-27T06:28:21.769Z,75
2016-09-27T06:29:21.765Z,80
2016-09-27T06:30:21.849Z,80
2016-09-27T06:31:21.797Z,80
2016-09-27T06:32:21.890Z,80
2016-09-27T06:33:26.880Z,80
2016-09-27T06:34:21.864Z,80
2016-09-27T06:35:21.881Z,85
2016-09-27T06:36:21.882Z,85
2016-09-27T06:37:34.675Z,85
2016-09-27T06:38:21.921Z,90
2016-09-27T06:39:21.941Z,90
2016-09-27T06:40:21.967Z,90
2016-09-27T06:41:21.990Z,95
2016-09-27T06:42:22.004Z,95
2016-09-27T06:43:22.037Z,95
2016-09-27T06:44:22.036Z,95
2016-09-27T06:45:22.111Z,95
2016-09-27T06:46:22.086Z,95
2016-09-27T06:47:22.089Z,95
2016-09-27T06:48:22.109Z,100
2016-09-27T06:49:22.133Z,100
2016-09-27T06:50:22.169Z,100
2016-09-27T06:51:22.182Z,100
2016-09-27T06:52:22.208Z,100
2016-09-27T06:53:22.220Z,105
2016-09-27T06:54:22.233Z,105
2016-09-27T06:55:22.254Z,110
2016-09-27T06:56:22.555Z,110
2016-09-27T06:57:22.296Z,110
2016-09-27T06:58:22.327Z,110
2016-09-27T06:59:22.327Z,115
2016-09-27T07:00:22.346Z,115
2016-09-27T07:01:22.383Z,115
2016-09-27T07:02:22.380Z,115
2016-09-27T07:03:22.405Z,115
2016-09-27T07:04:22.432Z,120
2016-09-27T07:05:22.440Z,120
2016-09-27T07:06:22.471Z,120
2016-09-27T07:07:22.488Z,120
2016-09-27T07:08:22.494Z,120
2016-09-27T07:09:22.520Z,125
2016-09-27T07:10:33.147Z,125
2016-09-27T07:11:22.561Z,125
2016-09-27T07:12:22.595Z,135
2016-09-27T07:13:22.601Z,130
2016-09-27T07:14:22.623Z,135
2016-09-27T07:15:22.643Z,125
2016-09-27T07:16:22.655Z,130
2016-09-27T07:17:22.682Z,130
2016-09-27T07:18:22.716Z,135
2016-09-27T07:19:22.725Z,135
2016-09-27T07:20:22.766Z,135
2016-09-27T07:21:22.777Z,135
2016-09-27T07:22:22.790Z,135
2016-09-27T07:23:22.807Z,135
2016-09-27T07:24:22.851Z,140
2016-09-27T07:25:22.842Z,140
2016-09-27T07:26:22.870Z,140
2016-09-27T07:27:22.880Z,145
2016-09-27T07:28:22.896Z,145
2016-09-27T07:29:22.918Z,145
2016-09-27T07:30:22.960Z,145
2016-09-27T07:31:22.970Z,145
2016-09-27T07:32:22.973Z,145
2016-09-27T07:33:23.010Z,145
2016-09-27T07:34:23.048Z,145
2016-09-27T07:35:23.049Z,145
2016-09-27T07:36:23.079Z,145
2016-09-27T07:37:23.094Z,145
2016-09-27T07:38:23.111Z,145
2016-09-27T07:39:23.127Z,145
2016-09-27T07:40:23.150Z,150
2016-09-27T07:41:23.160Z,145
2016-09-27T07:42:23.199Z,150
2016-09-27T07:43:23.206Z,145
2016-09-27T07:44:23.223Z,150
2016-09-27T07:45:23.248Z,145
2016-09-27T07:46:23.277Z,150
2016-09-27T07:47:23.294Z,155
2016-09-27T07:48:23.312Z,155
2016-09-27T07:49:23.331Z,140
2016-09-27T07:50:23.341Z,125
2016-09-27T07:51:23.379Z,125
2016-09-27T07:52:23.413Z,150
2016-09-27T07:53:23.404Z,140
2016-09-27T07:54:23.436Z,155
2016-09-27T07:55:23.445Z,125
2016-09-27T07:56:23.480Z,125
2016-09-27T07:57:23.494Z,130
2016-09-27T07:58:23.505Z,145
2016-09-27T07:59:23.533Z,160
2016-09-27T08:00:23.549Z,160
2016-09-27T08:01:23.571Z,160
2016-09-27T08:02:23.592Z,160
2016-09-27T08:03:23.620Z,160
2016-09-27T08:04:23.638Z,160
2016-09-27T08:05:23.663Z,160
2016-09-27T08:06:23.690Z,165
2016-09-27T08:07:23.703Z,160
2016-09-27T08:08:23.718Z,165
2016-09-27T08:09:23.742Z,170
2016-09-27T08:10:23.778Z,165
2016-09-27T08:11:23.781Z,165
2016-09-27T08:12:23.822Z,165
2016-09-27T08:13:23.833Z,165
2016-09-27T08:14:23.839Z,165
2016-09-27T08:15:23.859Z,165
2016-09-27T08:16:23.892Z,165
2016-09-27T08:17:23.916Z,165
2016-09-27T08:18:23.933Z,165
2016-09-27T08:19:23.950Z,165
2016-09-27T08:20:23.984Z,165
2016-09-27T08:21:24.335Z,165
2016-09-27T08:22:24.019Z,170
2016-09-27T08:23:24.040Z,170
2016-09-27T08:24:24.063Z,165
2016-09-27T08:25:24.072Z,170
2016-09-27T08:26:24.123Z,170
2016-09-27T08:27:24.107Z,170
2016-09-27T08:28:24.139Z,170
2016-09-27T08:29:24.152Z,170
2016-09-27T08:30:24.522Z,170
2016-09-27T08:31:24.528Z,170
2016-09-27T08:32:24.266Z,170
2016-09-27T08:33:24.254Z,170
2016-09-27T08:34:24.274Z,170
2016-09-27T08:35:24.281Z,170
2016-09-27T08:36:24.313Z,170
2016-09-27T08:37:24.336Z,175
2016-09-27T08:38:24.366Z,170
2016-09-27T08:39:24.375Z,175
2016-09-27T08:40:24.404Z,170
2016-09-27T08:41:24.412Z,175
2016-09-27T08:42:24.446Z,175
2016-09-27T08:43:24.453Z,175
2016-09-27T08:44:24.496Z,175
2016-09-27T08:45:24.509Z,175
2016-09-27T08:46:24.528Z,175
2016-09-27T08:47:24.617Z,175
2016-09-27T08:48:24.573Z,175
2016-09-27T08:49:24.598Z,175
2016-09-27T08:50:24.627Z,175
2016-09-27T08:51:24.638Z,175
2016-09-27T08:52:24.661Z,175
2016-09-27T08:53:24.681Z,175
2016-09-27T08:54:25.036Z,175
2016-09-27T08:55:24.712Z,175
2016-09-27T08:56:24.763Z,175
2016-09-27T08:57:24.753Z,175
2016-09-27T08:58:24.781Z,175
2016-09-27T08:59:24.807Z,175
2016-09-27T09:00:24.838Z,175
2016-09-27T09:01:24.848Z,175
2016-09-27T09:02:24.877Z,175
2016-09-27T09:03:24.889Z,175
2016-09-27T09:04:24.918Z,185
2016-09-27T09:05:24.937Z,185
2016-09-27T09:06:24.960Z,180
2016-09-27T09:07:24.988Z,180
2016-09-27T09:08:24.999Z,180
2016-09-27T09:09:25.021Z,175
2016-09-27T09:10:25.032Z,175
2016-09-27T09:11:25.060Z,175
2016-09-27T09:12:25.081Z,175
2016-09-27T09:13:25.107Z,175
2016-09-27T09:14:25.131Z,175
2016-09-27T09:15:25.153Z,180
2016-09-27T09:16:25.175Z,185
2016-09-27T09:17:25.205Z,185
2016-09-27T09:18:25.211Z,185
2016-09-27T09:19:25.240Z,185
2016-09-27T09:20:25.280Z,185
2016-09-27T09:21:25.295Z,185
2016-09-27T09:22:25.321Z,185
2016-09-27T09:23:25.326Z,185
2016-09-27T09:24:25.339Z,185
2016-09-27T09:25:25.383Z,180
2016-09-27T09:26:25.398Z,180
2016-09-27T09:27:25.410Z,180
2016-09-27T09:28:25.442Z,185
2016-09-27T09:29:25.457Z,185
2016-09-27T09:30:25.488Z,185
2016-09-27T09:31:25.498Z,190
2016-09-27T09:32:25.527Z,185
2016-09-27T09:33:25.545Z,190
2016-09-27T09:34:25.576Z,190
2016-09-27T09:35:25.607Z,140
2016-09-27T09:36:25.610Z,185
2016-09-27T09:37:25.644Z,150
2016-09-27T09:38:25.660Z,145
2016-09-27T09:39:25.681Z,145
2016-09-27T09:40:25.699Z,145
2016-09-27T09:41:25.713Z,165
2016-09-27T09:42:25.750Z,145
2016-09-27T09:43:25.776Z,140
2016-09-27T09:44:25.780Z,145
2016-09-27T09:45:25.808Z,145
2016-09-27T09:46:25.850Z,200
2016-09-27T09:47:25.850Z,205
2016-09-27T09:48:25.881Z,205
2016-09-27T09:49:25.906Z,200
2016-09-27T09:50:25.924Z,165
2016-09-27T09:51:25.944Z,150
2016-09-27T09:52:25.964Z,205
2016-09-27T09:53:25.990Z,205
2016-09-27T09:54:26.048Z,205
2016-09-27T09:55:26.030Z,205
2016-09-27T09:56:26.054Z,210
2016-09-27T09:57:26.073Z,180
2016-09-27T09:58:26.098Z,155
2016-09-27T09:59:26.126Z,150
2016-09-27T10:00:26.150Z,145
2016-09-27T10:01:26.159Z,145
2016-09-27T10:02:26.181Z,150
2016-09-27T10:03:26.204Z,145
2016-09-27T10:04:26.244Z,150
2016-09-27T10:05:26.246Z,155
2016-09-27T10:06:26.605Z,180
2016-09-27T10:07:26.331Z,155
2016-09-27T10:08:26.353Z,155
2016-09-27T10:09:26.358Z,160
2016-09-27T10:10:26.393Z,175
2016-09-27T10:11:26.409Z,170
2016-09-27T10:12:26.442Z,160
2016-09-27T10:13:26.430Z,160
2016-09-27T10:14:26.474Z,160
2016-09-27T10:15:26.500Z,155
2016-09-27T10:16:26.510Z,155
2016-09-27T10:17:26.542Z,150
2016-09-27T10:18:26.915Z,145
2016-09-27T10:19:26.587Z,145
2016-09-27T10:20:26.596Z,145
2016-09-27T10:21:26.624Z,150
2016-09-27T10:22:26.685Z,145
2016-09-27T10:23:26.701Z,145
2016-09-27T10:24:26.748Z,165
2016-09-27T10:25:26.740Z,165
2016-09-27T10:26:26.779Z,175
2016-09-27T10:27:26.795Z,185
2016-09-27T10:28:27.154Z,210
2016-09-27T10:29:26.817Z,235
2016-09-27T10:30:26.820Z,230
2016-09-27T10:31:26.823Z,230
2016-09-27T10:32:26.908Z,230
2016-09-27T10:33:26.893Z,230
2016-09-27T10:34:26.919Z,230
2016-09-27T10:35:26.971Z,180
2016-09-27T10:36:26.955Z,180
2016-09-27T10:37:26.963Z,170
2016-09-27T10:38:27.004Z,170
2016-09-27T10:39:27.022Z,170
2016-09-27T10:40:27.034Z,170
2016-09-27T10:41:27.049Z,170
2016-09-27T10:42:27.098Z,170
2016-09-27T10:43:27.106Z,170
2016-09-27T10:44:27.139Z,175
2016-09-27T10:45:27.142Z,180
2016-09-27T10:46:27.177Z,180
2016-09-27T10:47:27.197Z,185
2016-09-27T10:48:27.214Z,180
2016-09-27T10:49:27.247Z,185
2016-09-27T10:50:27.276Z,185
2016-09-27T10:51:27.280Z,200
2016-09-27T10:52:27.317Z,190
2016-09-27T10:53:27.327Z,205
2016-09-27T10:54:27.358Z,195
2016-09-27T10:55:27.372Z,190
2016-09-27T10:56:27.407Z,195
2016-09-27T10:57:27.420Z,200
2016-09-27T10:58:27.449Z,200
2016-09-27T10:59:27.459Z,215
2016-09-27T11:00:27.484Z,205
2016-09-27T11:01:27.519Z,245
2016-09-27T11:02:27.549Z,205
2016-09-27T11:03:27.557Z,200
2016-09-27T11:04:27.595Z,200
2016-09-27T11:05:27.603Z,195
2016-09-27T11:06:27.636Z,200
2016-09-27T11:07:27.665Z,205
2016-09-27T11:08:27.669Z,190
2016-09-27T11:09:27.715Z,180
2016-09-27T11:10:27.732Z,175
2016-09-27T11:11:27.753Z,175
2016-09-27T11:12:27.774Z,175
2016-09-27T11:13:27.801Z,170
2016-09-27T11:14:27.817Z,165
2016-09-27T11:15:27.828Z,165
2016-09-27T11:16:27.865Z,165
2016-09-27T11:17:27.878Z,170
2016-09-27T11:18:27.907Z,170
2016-09-27T11:19:27.926Z,200
2016-09-27T11:20:27.957Z,170
2016-09-27T11:21:27.976Z,160
2016-09-27T11:22:28.010Z,150
2016-09-27T11:23:28.023Z,150
2016-09-27T11:24:28.041Z,180
2016-09-27T11:25:28.056Z,205
2016-09-27T11:26:28.092Z,210
2016-09-27T11:27:28.123Z,200
2016-09-27T11:28:28.133Z,200
2016-09-27T11:29:28.161Z,210
2016-09-27T11:30:28.186Z,175
2016-09-27T11:31:28.194Z,160
2016-09-27T11:32:28.238Z,155
2016-09-27T11:33:28.260Z,165
2016-09-27T11:34:28.268Z,180
2016-09-27T11:35:28.303Z,180
2016-09-27T11:36:28.332Z,200
2016-09-27T11:37:28.351Z,210
2016-09-27T11:38:28.359Z,210
2016-09-27T11:39:28.405Z,210
2016-09-27T11:40:28.426Z,210
2016-09-27T11:41:28.426Z,210
2016-09-27T11:42:28.474Z,210
2016-09-27T11:43:28.472Z,205
2016-09-27T11:45:28.543Z,145
2016-09-27T11:46:28.554Z,140
2016-09-27T11:47:28.574Z,145
2016-09-27T11:48:28.603Z,145
2016-09-27T11:49:28.629Z,145
2016-09-27T11:50:28.642Z,140
2016-09-27T11:51:28.662Z,145
2016-09-27T11:52:28.683Z,155
2016-09-27T11:53:28.695Z,185
2016-09-27T11:54:28.739Z,190
2016-09-27T11:55:28.765Z,190
2016-09-27T11:56:28.783Z,205
2016-09-27T11:57:28.803Z,205
2016-09-27T11:58:28.825Z,205
2016-09-27T11:59:28.842Z,205
2016-09-27T12:00:28.873Z,205
2016-09-27T12:01:28.901Z,205
2016-09-27T12:02:28.941Z,210
2016-09-27T12:03:28.960Z,210
2016-09-27T12:04:28.981Z,215
2016-09-27T12:05:29.005Z,220
2016-09-27T12:06:29.046Z,220
2016-09-27T12:07:29.062Z,215
2016-09-27T12:08:29.069Z,220
2016-09-27T12:09:29.147Z,215
2016-09-27T12:10:29.111Z,220
2016-09-27T12:11:29.152Z,220
2016-09-27T12:12:29.175Z,225
2016-09-27T12:13:29.507Z,220
2016-09-27T12:14:29.212Z,225
2016-09-27T12:15:29.229Z,225
2016-09-27T12:16:29.248Z,225
2016-09-27T12:17:29.275Z,225
2016-09-27T12:18:29.301Z,230
2016-09-27T12:19:29.336Z,230
2016-09-27T12:20:29.351Z,230
2016-09-27T12:21:29.388Z,230
2016-09-27T12:22:29.410Z,240
2016-09-27T12:23:29.414Z,235
2016-09-27T12:24:29.452Z,240
2016-09-27T12:25:29.485Z,235
2016-09-27T12:26:29.503Z,235
2016-09-27T12:27:29.519Z,225
2016-09-27T12:28:29.533Z,230
2016-09-27T12:29:29.565Z,230
2016-09-27T12:30:29.573Z,230
2016-09-27T12:31:29.618Z,235
2016-09-27T12:32:29.636Z,240
2016-09-27T12:33:29.660Z,235
2016-09-27T12:34:29.680Z,235
2016-09-27T12:35:29.715Z,235
2016-09-27T12:36:29.726Z,235
2016-09-27T12:37:29.767Z,235
2016-09-27T12:38:29.797Z,240
2016-09-27T12:39:29.841Z,240
2016-09-27T12:40:29.818Z,240
2016-09-27T12:41:29.868Z,240
2016-09-27T12:42:29.865Z,170
2016-09-27T12:43:29.905Z,235
2016-09-27T12:44:30.329Z,235
2016-09-27T12:45:30.443Z,230
2016-09-27T12:46:30.307Z,235
2016-09-27T12:47:30.274Z,215
2016-09-27T12:48:30.311Z,175
2016-09-27T12:49:30.381Z,190
2016-09-27T12:50:30.439Z,155
2016-09-27T12:51:30.367Z,195
2016-09-27T12:52:30.459Z,155
2016-09-27T12:53:30.570Z,160
2016-09-27T12:54:30.663Z,180
2016-09-27T12:55:30.568Z,225
2016-09-27T12:56:30.625Z,195
2016-09-27T12:57:30.669Z,205
2016-09-27T12:58:30.686Z,170
2016-09-27T12:59:30.741Z,165
2016-09-27T13:00:30.730Z,165
2016-09-27T13:01:30.733Z,160
2016-09-27T13:02:30.700Z,155
2016-09-27T13:03:30.685Z,160
2016-09-27T13:04:30.708Z,210
2016-09-27T13:05:30.528Z,155
2016-09-27T13:06:30.513Z,210
2016-09-27T13:07:30.581Z,210
2016-09-27T13:08:30.594Z,205
2016-09-27T13:09:30.629Z,205
2016-09-27T13:10:30.673Z,205
2016-09-27T13:11:30.714Z,205
2016-09-27T13:12:30.679Z,200
2016-09-27T13:13:30.751Z,195
2016-09-27T13:14:30.845Z,135
2016-09-27T13:15:30.822Z,165
2016-09-27T13:16:30.803Z,145
2016-09-27T13:17:30.908Z,130
2016-09-27T13:18:30.870Z,130
2016-09-27T13:19:30.946Z,135
2016-09-27T13:20:30.986Z,130
2016-09-27T13:21:30.917Z,130
2016-09-27T13:22:30.948Z,130
2016-09-27T13:23:31.028Z,130
2016-09-27T13:24:31.105Z,125
2016-09-27T13:25:31.126Z,155
2016-09-27T13:26:31.163Z,160
2016-09-27T13:27:31.150Z,155
2016-09-27T13:28:31.206Z,140
2016-09-27T13:29:31.249Z,180
2016-09-27T13:30:31.266Z,180
2016-09-27T13:31:31.432Z,185
2016-09-27T13:32:31.348Z,185
2016-09-27T13:33:31.371Z,190
2016-09-27T13:34:31.501Z,190
2016-09-27T13:35:31.549Z,185
2016-09-27T13:36:31.541Z,185
2016-09-27T13:37:31.592Z,185
2016-09-27T13:38:31.634Z,185
2016-09-27T13:39:31.686Z,185
2016-09-27T13:40:31.705Z,185
2016-09-27T13:41:31.712Z,185
2016-09-27T13:42:31.737Z,180
2016-09-27T13:43:31.736Z,185
2016-09-27T13:44:31.835Z,180
2016-09-27T13:45:31.803Z,175
2016-09-27T13:46:31.818Z,180
2016-09-27T13:47:31.849Z,180
2016-09-27T13:48:31.874Z,180
2016-09-27T13:49:31.935Z,180
2016-09-27T13:50:31.911Z,180
2016-09-27T13:51:31.934Z,180
2016-09-27T13:52:31.971Z,180
2016-09-27T13:53:31.956Z,180
2016-09-27T13:54:32.006Z,185
2016-09-27T13:55:32.045Z,185
2016-09-27T13:56:32.060Z,190
2016-09-27T13:57:32.070Z,185
2016-09-27T13:58:32.075Z,190
2016-09-27T13:59:32.184Z,185
2016-09-27T14:00:32.167Z,195
2016-09-27T14:01:32.178Z,185
2016-09-27T14:02:32.165Z,185
2016-09-27T14:03:32.234Z,185
2016-09-27T14:04:32.287Z,185
2016-09-27T14:05:32.275Z,185
2016-09-27T14:06:32.304Z,175
2016-09-27T14:07:32.295Z,180
2016-09-27T14:08:32.335Z,185
2016-09-27T14:09:32.430Z,185
2016-09-27T14:10:32.397Z,185
2016-09-27T14:11:32.360Z,185
2016-09-27T14:12:32.404Z,185
2016-09-27T14:13:32.310Z,185